Time;durP1;ratioP1;P1;durP2;ratioP2;P2;SDS_P1;SDS_P2;PMS_P1;PMS_P2;Temp;Humidity;BMP_temperature;BMP_pressure;BME280_temperature;BME280_humidity;BME280_pressure;Samples;Min_cycle;Max_cycle;Signal;HPM_P1;HPM_P2
2023/08/25 00:00:31;;;;;;;8.93;8.63;;;19.90;99.90;;;;;;5042020;28;20234;-87
2023/08/25 00:02:59;;;;;;;9.20;8.90;;;19.90;99.90;;;;;;5042032;28;20231;-87
2023/08/25 00:08:08;;;;;;;9.00;8.70;;;19.80;99.90;;;;;;5069426;22;20241;-86
2023/08/25 00:10:47;;;;;;;9.10;8.80;;;19.70;99.90;;;;;;5061993;28;20234;-87
2023/08/25 00:13:15;;;;;;;8.85;8.60;;;19.70;99.90;;;;;;5064322;28;20234;-87
2023/08/25 00:18:32;;;;;;;8.70;8.50;;;19.70;99.90;;;;;;5046128;28;20215;-86
2023/08/25 00:21:01;;;;;;;9.00;8.70;;;19.70;99.90;;;;;;5041786;28;20235;-87
2023/08/25 00:23:40;;;;;;;8.85;8.57;;;19.60;99.90;;;;;;5041639;28;20231;-87
2023/08/25 00:26:09;;;;;;;8.70;8.50;;;19.60;99.90;;;;;;5041568;28;20321;-87
2023/08/25 00:28:49;;;;;;;9.00;8.70;;;19.60;99.90;;;;;;5041486;28;20227;-87
2023/08/25 00:31:19;;;;;;;8.73;8.50;;;19.60;99.90;;;;;;5040715;28;20238;-87
2023/08/25 00:36:33;;;;;;;8.60;8.40;;;19.50;99.90;;;;;;5038504;28;20286;-88
2023/08/25 00:39:12;;;;;;;8.60;8.40;;;19.50;99.90;;;;;;5041938;28;20230;-87
2023/08/25 00:41:41;;;;;;;8.82;8.55;;;19.40;99.90;;;;;;5041668;28;20231;-87
2023/08/25 00:44:20;;;;;;;8.60;8.40;;;19.40;99.90;;;;;;5042736;28;20333;-87
2023/08/25 00:46:51;;;;;;;8.63;8.43;;;19.40;99.90;;;;;;5044707;28;20239;-87
2023/08/25 00:49:19;;;;;;;8.63;8.43;;;19.40;99.90;;;;;;5045659;28;20220;-87
2023/08/25 00:51:48;;;;;;;8.80;8.50;;;19.40;99.90;;;;;;5045513;28;20239;-87
2023/08/25 00:54:17;;;;;;;8.73;8.48;;;19.30;99.90;;;;;;5044829;28;20286;-87
2023/08/25 00:56:46;;;;;;;9.00;8.70;;;19.30;99.90;;;;;;5046306;28;20263;-87
2023/08/25 00:59:25;;;;;;;8.98;8.68;;;19.30;99.90;;;;;;5047478;28;20231;-87
2023/08/25 01:01:57;;;;;;;8.90;8.60;;;19.30;99.90;;;;;;5044576;28;20315;-88
2023/08/25 01:04:24;;;;;;;8.70;8.50;;;19.30;99.90;;;;;;5044542;28;20253;-87
2023/08/25 01:06:54;;;;;;;8.50;8.30;;;19.30;99.90;;;;;;5043923;28;20303;-87
2023/08/25 01:09:22;;;;;;;8.90;8.60;;;19.30;99.90;;;;;;5044957;28;20223;-87
2023/08/25 01:12:09;;;;;;;8.65;8.45;;;19.30;99.90;;;;;;5061019;28;20282;-87
2023/08/25 01:14:50;;;;;;;9.00;8.70;;;19.30;99.90;;;;;;5050446;28;20231;-87
2023/08/25 01:20:23;;;;;;;8.88;8.57;;;19.30;99.90;;;;;;5044216;28;20227;-86
2023/08/25 01:28:34;;;;;;;8.70;8.50;;;19.30;99.90;;;;;;5043414;28;20277;-86
2023/08/25 01:31:04;;;;;;;8.70;8.45;;;19.30;99.90;;;;;;5044141;28;20224;-86
2023/08/25 01:33:33;;;;;;;8.60;8.40;;;19.30;99.90;;;;;;5044886;28;20318;-86
2023/08/25 01:36:11;;;;;;;8.75;8.48;;;19.30;99.90;;;;;;5045149;28;20322;-86
2023/08/25 01:44:17;;;;;;;8.65;8.43;;;19.30;99.90;;;;;;5063135;28;20219;-86
2023/08/25 01:49:31;;;;;;;8.82;8.52;;;19.30;99.90;;;;;;5062744;28;20246;-87
2023/08/25 01:52:00;;;;;;;8.90;8.60;;;19.30;99.90;;;;;;5063021;28;20207;-88
2023/08/25 01:54:40;;;;;;;8.90;8.60;;;19.30;99.90;;;;;;5062854;28;20254;-87
2023/08/25 01:57:11;;;;;;;8.80;8.50;;;19.30;99.90;;;;;;5062173;28;20223;-86
2023/08/25 01:59:38;;;;;;;8.88;8.57;;;19.20;99.90;;;;;;5062190;28;20242;-87
2023/08/25 02:02:07;;;;;;;8.88;8.57;;;19.20;99.90;;;;;;5061575;28;20258;-86
2023/08/25 02:04:46;;;;;;;8.98;8.68;;;19.20;99.90;;;;;;5060134;28;20268;-86
2023/08/25 02:07:15;;;;;;;8.40;8.20;;;19.10;99.90;;;;;;5054635;28;20266;-86
2023/08/25 02:09:55;;;;;;;8.55;8.35;;;19.20;99.90;;;;;;5046023;28;20231;-86
2023/08/25 02:15:12;;;;;;;8.60;8.40;;;19.30;99.90;;;;;;5043904;28;20223;-86
2023/08/25 02:17:41;;;;;;;8.93;8.63;;;19.30;99.90;;;;;;5042982;28;20246;-86
2023/08/25 02:20:12;;;;;;;9.07;8.77;;;19.30;99.90;;;;;;5042948;28;20225;-86
2023/08/25 02:22:40;;;;;;;8.88;8.57;;;19.30;99.90;;;;;;5042934;28;20254;-86
2023/08/25 02:25:09;;;;;;;8.63;8.43;;;19.30;99.90;;;;;;5042787;28;20314;-86
2023/08/25 02:30:34;;;;;;;8.73;8.52;;;19.40;99.90;;;;;;5042782;28;20223;-86
2023/08/25 02:33:13;;;;;;;8.90;8.60;;;19.40;99.90;;;;;;5043212;28;20235;-86
2023/08/25 02:35:42;;;;;;;9.00;8.70;;;19.40;99.90;;;;;;5043747;28;20242;-86
2023/08/25 02:38:12;;;;;;;8.60;8.40;;;19.40;99.90;;;;;;5044792;28;20262;-87
2023/08/25 02:40:40;;;;;;;8.60;8.40;;;19.40;99.90;;;;;;5047368;28;20232;-86
2023/08/25 02:48:36;;;;;;;8.10;7.90;;;19.20;99.90;;;;;;5043191;28;20320;-86
2023/08/25 02:51:04;;;;;;;8.10;7.90;;;19.10;99.90;;;;;;5042812;28;20301;-86
2023/08/25 02:53:44;;;;;;;8.23;8.02;;;19.10;99.90;;;;;;5043154;28;20292;-87
2023/08/25 02:56:12;;;;;;;8.10;7.90;;;19.10;99.90;;;;;;5043027;28;20298;-85
2023/08/25 02:58:45;;;;;;;8.30;8.10;;;19.00;99.90;;;;;;5043384;28;20230;-86
2023/08/25 03:01:12;;;;;;;8.30;8.10;;;19.00;99.90;;;;;;5042670;28;20265;-86
2023/08/25 03:03:40;;;;;;;8.40;8.20;;;19.00;99.90;;;;;;5044753;28;20298;-86
2023/08/25 03:06:19;;;;;;;8.32;8.13;;;19.00;99.90;;;;;;5041322;28;20764;-86
2023/08/25 03:08:58;;;;;;;8.38;8.18;;;18.90;99.90;;;;;;5043299;28;20262;-86
2023/08/25 03:11:27;;;;;;;8.18;7.97;;;19.00;99.90;;;;;;5042847;28;20338;-86
2023/08/25 03:13:59;;;;;;;8.40;8.20;;;18.90;99.90;;;;;;5043020;28;20252;-86
2023/08/25 03:16:27;;;;;;;8.40;8.20;;;18.90;99.90;;;;;;5042677;28;20330;-86
2023/08/25 03:18:55;;;;;;;8.40;8.20;;;18.90;99.90;;;;;;5043169;28;20259;-86
2023/08/25 03:21:34;;;;;;;8.38;8.18;;;18.90;99.90;;;;;;5042411;28;20235;-86
2023/08/25 03:24:03;;;;;;;8.32;8.13;;;18.90;99.90;;;;;;5042461;28;20207;-87
2023/08/25 03:26:43;;;;;;;8.30;8.10;;;18.80;99.90;;;;;;5042175;28;20262;-86
2023/08/25 03:29:12;;;;;;;8.48;8.27;;;18.80;99.90;;;;;;5043123;28;20269;-86
2023/08/25 03:31:40;;;;;;;8.48;8.27;;;18.80;99.90;;;;;;5043053;28;20266;-86
2023/08/25 03:34:19;;;;;;;8.20;8.00;;;18.80;99.90;;;;;;5042488;28;20259;-87
2023/08/25 03:36:47;;;;;;;8.20;8.00;;;18.90;99.90;;;;;;5042580;28;20243;-87
2023/08/25 03:41:56;;;;;;;8.40;8.20;;;18.80;99.90;;;;;;5042766;28;20228;-86
2023/08/25 03:49:51;;;;;;;8.23;8.02;;;19.00;99.90;;;;;;5044276;28;20242;-86
2023/08/25 03:52:20;;;;;;;8.32;8.13;;;19.10;99.90;;;;;;5042575;28;20235;-86
2023/08/25 03:54:59;;;;;;;8.43;8.23;;;19.20;99.90;;;;;;5042009;28;20242;-86
2023/08/25 03:57:27;;;;;;;8.88;8.57;;;19.10;99.90;;;;;;5042378;28;20243;-86
2023/08/25 03:59:59;;;;;;;8.40;8.20;;;19.10;99.90;;;;;;5042986;28;20231;-86
2023/08/25 04:02:26;;;;;;;8.50;8.30;;;19.00;99.90;;;;;;5043383;28;20231;-86
2023/08/25 04:05:05;;;;;;;8.43;8.23;;;19.00;99.90;;;;;;5042743;28;20212;-86
2023/08/25 04:07:34;;;;;;;9.02;8.73;;;18.90;99.90;;;;;;5041528;28;20290;-86
2023/08/25 04:10:14;;;;;;;8.93;8.63;;;18.90;99.90;;;;;;5041997;28;20261;-87
2023/08/25 04:12:53;;;;;;;8.75;8.50;;;18.90;99.90;;;;;;5040277;28;20278;-86
2023/08/25 04:15:24;;;;;;;8.88;8.57;;;18.80;99.90;;;;;;5042017;28;20282;-86
2023/08/25 04:17:51;;;;;;;8.60;8.40;;;18.90;99.90;;;;;;5042042;28;20235;-86
2023/08/25 04:20:21;;;;;;;8.70;8.50;;;18.80;99.90;;;;;;5048357;28;20238;-87
2023/08/25 04:22:51;;;;;;;8.82;8.52;;;18.90;99.90;;;;;;5054475;28;20251;-87
2023/08/25 04:25:19;;;;;;;8.90;8.60;;;18.90;99.90;;;;;;5055673;28;20234;-86
2023/08/25 04:27:59;;;;;;;9.20;8.90;;;18.90;99.90;;;;;;5055020;28;20232;-86
2023/08/25 04:30:29;;;;;;;9.00;8.70;;;18.80;99.90;;;;;;5050123;28;20243;-86
2023/08/25 04:32:56;;;;;;;8.73;8.52;;;18.90;99.90;;;;;;5041912;28;20237;-86
2023/08/25 04:35:36;;;;;;;8.50;8.30;;;18.90;99.90;;;;;;5042352;28;20305;-86
2023/08/25 04:40:51;;;;;;;8.48;8.27;;;18.90;99.90;;;;;;5042117;28;20230;-87
2023/08/25 04:43:29;;;;;;;7.50;7.30;;;18.90;99.90;;;;;;5043034;28;20212;-86
2023/08/25 04:48:46;;;;;;;8.60;8.40;;;18.90;99.90;;;;;;5044535;28;20227;-86
2023/08/25 04:51:25;;;;;;;8.60;8.40;;;18.90;99.90;;;;;;5053287;28;20207;-86
2023/08/25 04:53:54;;;;;;;8.00;7.80;;;18.90;99.90;;;;;;5060431;28;20227;-86
2023/08/25 04:56:21;;;;;;;7.90;7.70;;;18.90;99.90;;;;;;5082106;22;20242;-83
2023/08/25 04:58:49;;;;;;;8.02;7.82;;;18.90;99.90;;;;;;5061423;28;20336;-81
2023/08/25 05:01:17;;;;;;;8.23;8.02;;;18.90;99.90;;;;;;5062562;28;20282;-81
2023/08/25 05:03:45;;;;;;;8.20;8.00;;;18.90;99.90;;;;;;5061220;28;20262;-81
2023/08/25 05:06:12;;;;;;;8.20;8.00;;;19.00;99.90;;;;;;5059054;28;20238;-81
2023/08/25 05:08:39;;;;;;;8.25;8.05;;;19.00;99.90;;;;;;5042394;28;20236;-81
2023/08/25 05:11:06;;;;;;;7.90;7.70;;;19.00;99.90;;;;;;5042406;28;20228;-83
2023/08/25 05:13:33;;;;;;;8.20;8.00;;;19.10;99.90;;;;;;5039982;28;20231;-83
2023/08/25 05:16:00;;;;;;;8.20;8.00;;;19.10;99.90;;;;;;5041097;28;20242;-81
2023/08/25 05:18:31;;;;;;;8.18;7.97;;;19.10;99.90;;;;;;5041028;28;20243;-83
2023/08/25 05:21:00;;;;;;;8.30;8.10;;;19.20;99.90;;;;;;5041601;28;20263;-82
2023/08/25 05:23:28;;;;;;;8.50;8.30;;;19.20;99.90;;;;;;5041610;28;20274;-83
2023/08/25 05:25:56;;;;;;;8.40;8.20;;;19.20;99.90;;;;;;5031267;28;20239;-80
2023/08/25 05:28:23;;;;;;;8.70;8.50;;;19.30;99.90;;;;;;5040618;28;20246;-80
2023/08/25 05:30:50;;;;;;;8.60;8.40;;;19.40;99.90;;;;;;5043559;28;20295;-80
2023/08/25 05:33:17;;;;;;;8.38;8.18;;;19.40;99.90;;;;;;5044329;28;20223;-80
2023/08/25 05:35:47;;;;;;;8.00;7.80;;;19.40;99.90;;;;;;5045073;28;20219;-80
2023/08/25 05:38:16;;;;;;;8.20;8.00;;;19.50;99.90;;;;;;5044978;28;20326;-81
2023/08/25 05:40:43;;;;;;;7.90;7.70;;;19.50;99.90;;;;;;5045608;28;20299;-80
2023/08/25 05:43:10;;;;;;;8.00;7.80;;;19.60;99.90;;;;;;5044124;28;20319;-83
2023/08/25 05:45:37;;;;;;;7.82;7.63;;;19.60;99.90;;;;;;5044784;28;20223;-83
2023/08/25 05:48:06;;;;;;;7.80;7.60;;;19.60;99.90;;;;;;5044688;28;20392;-80
2023/08/25 05:50:37;;;;;;;7.95;7.75;;;19.70;99.90;;;;;;5043786;28;20303;-80
2023/08/25 05:53:10;;;;;;;8.43;8.23;;;19.70;99.90;;;;;;5046619;28;20235;-82
2023/08/25 05:55:38;;;;;;;8.60;8.40;;;19.80;99.90;;;;;;5047114;28;20208;-82
2023/08/25 05:58:10;;;;;;;8.80;8.60;;;19.90;99.90;;;;;;5044709;28;20319;-83
2023/08/25 06:00:38;;;;;;;8.65;8.45;;;20.00;99.90;;;;;;5045505;28;20239;-80
2023/08/25 06:03:08;;;;;;;8.80;8.60;;;20.10;99.90;;;;;;5044469;28;20223;-80
2023/08/25 06:05:35;;;;;;;8.82;8.63;;;20.20;99.90;;;;;;5043792;28;20314;-83
2023/08/25 06:08:05;;;;;;;8.88;8.68;;;20.30;99.90;;;;;;5057916;28;20242;-80
2023/08/25 06:10:35;;;;;;;9.38;9.07;;;20.40;99.90;;;;;;5061122;28;20219;-80
2023/08/25 06:13:05;;;;;;;9.20;8.90;;;20.50;99.90;;;;;;5059151;28;20227;-84
2023/08/25 06:15:33;;;;;;;9.68;9.38;;;20.70;99.90;;;;;;5057432;28;20223;-80
2023/08/25 06:18:00;;;;;;;10.25;9.95;;;20.80;99.90;;;;;;5052668;28;20235;-80
2023/08/25 06:20:27;;;;;;;10.27;9.98;;;21.00;99.90;;;;;;5048154;28;20262;-80
2023/08/25 06:22:57;;;;;;;10.27;9.98;;;21.10;99.90;;;;;;5047994;28;20255;-81
2023/08/25 06:25:27;;;;;;;10.10;9.80;;;21.20;99.90;;;;;;5047285;28;20235;-83
2023/08/25 06:27:56;;;;;;;10.63;10.32;;;21.30;99.90;;;;;;5051238;28;20227;-81
2023/08/25 06:30:23;;;;;;;10.60;10.30;;;21.40;99.90;;;;;;5052734;28;20241;-81
2023/08/25 06:32:52;;;;;;;10.60;10.30;;;21.50;99.90;;;;;;5056413;28;20223;-80
2023/08/25 06:35:21;;;;;;;10.55;10.25;;;21.60;99.90;;;;;;5057443;28;20212;-80
2023/08/25 06:37:48;;;;;;;10.48;10.18;;;21.70;99.90;;;;;;5056434;28;20249;-81
2023/08/25 06:40:15;;;;;;;10.60;10.30;;;21.90;99.90;;;;;;5051774;28;20223;-79
2023/08/25 06:42:42;;;;;;;10.30;10.00;;;21.90;99.90;;;;;;5051232;28;20322;-81
2023/08/25 06:45:14;;;;;;;10.52;10.23;;;22.10;99.90;;;;;;5052540;28;20287;-80
2023/08/25 06:47:41;;;;;;;10.40;10.10;;;22.20;99.90;;;;;;5051845;28;20667;-79
2023/08/25 06:50:09;;;;;;;10.65;10.35;;;22.30;99.90;;;;;;5050915;28;20216;-79
2023/08/25 06:52:36;;;;;;;10.35;10.05;;;22.40;99.90;;;;;;5052081;28;20243;-79
2023/08/25 06:55:04;;;;;;;10.40;10.10;;;22.60;99.90;;;;;;5044407;28;20292;-80
2023/08/25 06:57:33;;;;;;;10.85;10.55;;;22.80;99.90;;;;;;5042490;28;20231;-80
2023/08/25 07:00:00;;;;;;;10.70;10.40;;;22.90;99.90;;;;;;5047687;28;20231;-79
2023/08/25 07:02:29;;;;;;;10.32;10.02;;;23.10;99.90;;;;;;5043921;28;20231;-82
2023/08/25 07:04:56;;;;;;;10.80;10.50;;;23.40;99.90;;;;;;5040370;28;20234;-80
2023/08/25 07:07:26;;;;;;;10.88;10.57;;;23.60;99.90;;;;;;5040681;28;20326;-79
2023/08/25 07:09:56;;;;;;;10.80;10.50;;;23.80;99.90;;;;;;5042474;28;20285;-79
2023/08/25 07:12:23;;;;;;;11.10;10.80;;;23.90;99.90;;;;;;5040898;28;20232;-78
2023/08/25 07:14:51;;;;;;;11.13;10.82;;;24.00;99.90;;;;;;5043125;28;20244;-78
2023/08/25 07:17:18;;;;;;;10.95;10.65;;;24.10;99.90;;;;;;5042326;28;20219;-79
2023/08/25 07:19:46;;;;;;;10.98;10.68;;;24.10;99.90;;;;;;5025560;28;20232;-78
2023/08/25 07:22:13;;;;;;;10.68;10.38;;;24.30;99.90;;;;;;5018087;28;20243;-79
2023/08/25 07:24:40;;;;;;;10.77;10.48;;;24.40;99.90;;;;;;5018903;28;20220;-78
2023/08/25 07:27:07;;;;;;;10.60;10.30;;;24.60;99.90;;;;;;5018635;28;20242;-78
2023/08/25 07:29:38;;;;;;;10.60;10.30;;;24.70;99.90;;;;;;5018220;28;20326;-79
2023/08/25 07:32:06;;;;;;;10.52;10.23;;;24.80;99.90;;;;;;5027251;28;20230;-78
2023/08/25 07:34:33;;;;;;;10.60;10.30;;;24.70;99.90;;;;;;5019557;28;20227;-79
2023/08/25 07:37:06;;;;;;;10.80;10.50;;;24.70;99.90;;;;;;5041137;28;20226;-79
2023/08/25 07:39:44;;;;;;;10.85;10.55;;;24.70;99.90;;;;;;5049498;28;20324;-81
2023/08/25 07:42:16;;;;;;;10.85;10.55;;;24.70;99.90;;;;;;5046923;28;20278;-80
2023/08/25 07:44:43;;;;;;;10.90;10.60;;;24.60;99.90;;;;;;5046286;28;20235;-80
2023/08/25 07:47:10;;;;;;;10.63;10.32;;;24.50;99.90;;;;;;5047985;28;20232;-81
2023/08/25 07:49:37;;;;;;;11.00;10.70;;;24.50;99.90;;;;;;5046061;28;20255;-79
2023/08/25 07:52:06;;;;;;;10.70;10.40;;;24.50;99.90;;;;;;5041920;28;20235;-81
2023/08/25 07:54:33;;;;;;;10.98;10.68;;;24.50;99.90;;;;;;5045686;28;20263;-81
2023/08/25 07:57:01;;;;;;;11.07;10.77;;;24.50;99.90;;;;;;5046706;28;20247;-81
2023/08/25 07:59:29;;;;;;;10.80;10.50;;;24.30;99.90;;;;;;5021690;28;20270;-82
2023/08/25 08:01:56;;;;;;;10.90;10.60;;;24.00;99.90;;;;;;5046211;28;20243;-80
2023/08/25 08:04:23;;;;;;;11.02;10.73;;;23.80;99.90;;;;;;5048989;28;20230;-80
2023/08/25 08:06:51;;;;;;;11.55;11.15;;;23.70;99.90;;;;;;5047023;28;20951;-81
2023/08/25 08:09:21;;;;;;;11.73;11.32;;;23.60;99.90;;;;;;5047108;28;20232;-81
2023/08/25 08:11:49;;;;;;;11.70;11.30;;;23.40;99.90;;;;;;5041714;28;20231;-80
2023/08/25 08:14:18;;;;;;;11.40;11.10;;;23.20;99.90;;;;;;5043072;28;20228;-79
2023/08/25 08:16:49;;;;;;;11.40;11.10;;;23.00;99.90;;;;;;5045113;28;20692;-81
2023/08/25 08:19:16;;;;;;;11.20;10.90;;;22.90;99.90;;;;;;5046278;28;20318;-80
2023/08/25 08:21:46;;;;;;;11.05;10.75;;;22.90;99.90;;;;;;5044898;28;20261;-80
2023/08/25 08:24:19;;;;;;;11.00;10.70;;;22.80;99.90;;;;;;5045696;28;20327;-81
2023/08/25 08:26:49;;;;;;;11.10;10.80;;;22.60;99.90;;;;;;5044323;28;20246;-83
2023/08/25 08:29:16;;;;;;;11.05;10.75;;;22.50;99.90;;;;;;5045979;28;20238;-82
2023/08/25 08:31:44;;;;;;;11.52;11.13;;;22.40;99.90;;;;;;5044993;28;20238;-81
2023/08/25 08:34:12;;;;;;;11.75;11.35;;;22.30;99.90;;;;;;5044989;28;20219;-81
2023/08/25 08:36:39;;;;;;;11.50;11.10;;;22.20;99.90;;;;;;5046745;28;20243;-81
2023/08/25 08:39:07;;;;;;;11.23;10.93;;;22.20;99.90;;;;;;5044303;28;20238;-81
2023/08/25 08:41:35;;;;;;;11.20;10.90;;;22.20;99.90;;;;;;5043373;28;20283;-82
2023/08/25 08:44:08;;;;;;;11.40;11.00;;;22.10;99.90;;;;;;5041596;28;20283;-82
2023/08/25 08:46:38;;;;;;;11.10;10.80;;;22.20;99.90;;;;;;5042516;28;20242;-81
2023/08/25 08:49:06;;;;;;;11.13;10.82;;;22.10;99.90;;;;;;5043749;28;20231;-81
2023/08/25 08:51:34;;;;;;;11.40;11.00;;;22.10;99.90;;;;;;5045541;28;20239;-82
2023/08/25 08:54:06;;;;;;;10.80;10.50;;;22.20;99.90;;;;;;5047176;28;20247;-81
2023/08/25 08:56:33;;;;;;;10.82;10.52;;;22.20;99.90;;;;;;5047649;28;20326;-81
2023/08/25 08:59:01;;;;;;;10.60;10.30;;;22.30;99.90;;;;;;5047854;28;20238;-81
2023/08/25 09:01:31;;;;;;;10.52;10.23;;;22.40;99.90;;;;;;5048933;28;20224;-82
2023/08/25 09:04:01;;;;;;;10.68;10.38;;;22.40;99.90;;;;;;5057227;28;20203;-83
2023/08/25 09:06:31;;;;;;;10.50;10.20;;;22.50;99.90;;;;;;5060311;28;20263;-81
2023/08/25 09:09:05;;;;;;;10.98;10.68;;;22.60;99.90;;;;;;5059464;28;20235;-82
2023/08/25 09:11:35;;;;;;;10.80;10.50;;;22.70;99.90;;;;;;5057037;28;20215;-82
2023/08/25 09:14:05;;;;;;;10.93;10.63;;;22.80;99.90;;;;;;5053485;28;20284;-82
2023/08/25 09:16:36;;;;;;;10.85;10.55;;;22.90;99.90;;;;;;5048200;28;20235;-82
2023/08/25 09:19:05;;;;;;;10.75;10.45;;;23.00;99.90;;;;;;5048521;28;20262;-82
2023/08/25 09:21:33;;;;;;;10.55;10.25;;;23.00;99.90;;;;;;5051065;28;20239;-81
2023/08/25 09:24:04;;;;;;;10.07;9.77;;;22.90;99.90;;;;;;5047343;28;20275;-82
2023/08/25 09:26:37;;;;;;;10.35;10.05;;;22.80;99.90;;;;;;5044196;28;20234;-82
2023/08/25 09:29:04;;;;;;;10.20;9.90;;;22.70;99.90;;;;;;5043144;28;20247;-80
2023/08/25 09:31:33;;;;;;;10.63;10.32;;;22.50;99.90;;;;;;5052127;28;20290;-81
2023/08/25 09:34:03;;;;;;;10.20;9.90;;;22.40;99.90;;;;;;5052447;28;20212;-82
2023/08/25 09:36:33;;;;;;;10.40;10.10;;;22.40;99.90;;;;;;5045692;28;20246;-83
2023/08/25 09:39:02;;;;;;;10.48;10.18;;;22.30;99.90;;;;;;5046504;28;20230;-81
2023/08/25 09:41:32;;;;;;;10.70;10.40;;;22.40;99.90;;;;;;5037267;28;20238;-81
2023/08/25 09:44:02;;;;;;;10.80;10.50;;;22.30;99.90;;;;;;5046868;28;20223;-83
2023/08/25 09:46:30;;;;;;;10.60;10.30;;;22.30;99.90;;;;;;5051129;28;20248;-82
2023/08/25 09:49:07;;;;;;;10.38;10.07;;;22.20;99.90;;;;;;5051200;28;20278;-81
2023/08/25 09:51:39;;;;;;;10.32;10.02;;;22.20;99.90;;;;;;5042465;28;20235;-81
2023/08/25 09:54:10;;;;;;;10.23;9.93;;;22.20;99.90;;;;;;5049962;28;20228;-83
2023/08/25 09:56:38;;;;;;;10.20;9.90;;;22.20;99.90;;;;;;5049070;28;20250;-82
2023/08/25 09:59:07;;;;;;;10.30;10.00;;;22.20;99.90;;;;;;5048046;28;20242;-80
2023/08/25 10:01:36;;;;;;;10.40;10.10;;;22.20;99.90;;;;;;5048360;28;20381;-83
2023/08/25 10:04:06;;;;;;;10.50;10.20;;;22.20;99.90;;;;;;5050662;28;20224;-81
2023/08/25 10:06:35;;;;;;;10.00;9.70;;;22.30;99.90;;;;;;5054979;28;20235;-81
2023/08/25 10:09:04;;;;;;;10.30;10.00;;;22.30;99.90;;;;;;5047850;28;20338;-81
2023/08/25 10:11:38;;;;;;;10.20;9.90;;;22.30;99.90;;;;;;5046451;28;20235;-81
2023/08/25 10:14:10;;;;;;;10.38;10.07;;;22.30;99.90;;;;;;5034763;28;20233;-79
2023/08/25 10:16:42;;;;;;;10.07;9.77;;;22.30;99.90;;;;;;5037609;28;20235;-78
2023/08/25 10:19:15;;;;;;;10.10;9.80;;;22.20;99.90;;;;;;5060054;28;20218;-78
2023/08/25 10:21:45;;;;;;;10.18;9.88;;;22.10;99.90;;;;;;5057698;28;20242;-77
2023/08/25 10:24:16;;;;;;;10.43;10.13;;;22.10;99.90;;;;;;5060224;28;20234;-79
2023/08/25 10:26:45;;;;;;;10.10;9.80;;;22.10;99.90;;;;;;5060757;28;20231;-76
2023/08/25 10:29:13;;;;;;;10.10;9.80;;;22.10;99.90;;;;;;5058877;28;20333;-78
2023/08/25 10:31:47;;;;;;;9.90;9.60;;;22.10;99.90;;;;;;5059197;28;20235;-77
2023/08/25 10:34:41;;;;;;;10.20;9.90;;;22.10;99.90;;;;;;5058812;28;20230;-76
2023/08/25 10:37:11;;;;;;;9.90;9.60;;;22.10;99.90;;;;;;5058482;28;20237;-77
2023/08/25 10:39:52;;;;;;;10.10;9.80;;;22.10;99.90;;;;;;5058808;28;20249;-76
2023/08/25 10:42:21;;;;;;;9.70;9.40;;;22.10;99.90;;;;;;5058929;28;20237;-76
2023/08/25 10:44:55;;;;;;;9.82;9.52;;;22.10;99.90;;;;;;5058635;28;20318;-76
2023/08/25 10:47:23;;;;;;;10.00;9.70;;;22.20;99.90;;;;;;5058923;28;20234;-76
2023/08/25 10:49:55;;;;;;;9.93;9.63;;;22.20;99.90;;;;;;5058921;28;20286;-76
2023/08/25 10:52:23;;;;;;;10.30;10.00;;;22.30;99.90;;;;;;5058819;28;20237;-76
2023/08/25 10:54:53;;;;;;;10.15;9.85;;;22.30;99.90;;;;;;5059208;28;20233;-76
2023/08/25 11:01:25;;;;;;;10.40;10.10;;;22.50;99.90;;;;;;5077944;28;20366;-85
2023/08/25 11:04:20;;;;;;;10.35;10.05;;;22.50;99.90;;;;;;5037954;28;20229;-85
2023/08/25 11:07:06;;;;;;;10.18;9.88;;;22.70;99.90;;;;;;5062145;28;20231;-85
2023/08/25 11:09:36;;;;;;;9.98;9.68;;;22.80;99.90;;;;;;5046317;28;20242;-85
2023/08/25 11:12:07;;;;;;;10.20;9.90;;;23.00;99.90;;;;;;5042602;28;20238;-85
2023/08/25 11:14:36;;;;;;;10.27;9.98;;;23.20;99.90;;;;;;5041705;28;20227;-85
2023/08/25 11:17:06;;;;;;;10.70;10.40;;;23.40;99.90;;;;;;5058731;28;20231;-85
2023/08/25 11:19:36;;;;;;;10.68;10.38;;;23.60;99.90;;;;;;5048623;28;20286;-86
2023/08/25 11:24:58;;;;;;;10.63;10.32;;;23.70;99.90;;;;;;5047304;28;20234;-85
2023/08/25 11:27:31;;;;;;;10.60;10.30;;;23.80;99.90;;;;;;5040388;28;20235;-86
2023/08/25 11:30:09;;;;;;;10.40;10.10;;;23.90;99.90;;;;;;5040705;28;20257;-85
2023/08/25 11:32:38;;;;;;;10.15;9.85;;;24.00;99.90;;;;;;5041007;28;20265;-85
2023/08/25 11:35:07;;;;;;;10.15;9.85;;;23.90;99.90;;;;;;5041085;28;20334;-85
2023/08/25 11:40:23;;;;;;;9.93;9.63;;;23.70;99.90;;;;;;5039271;28;20309;-85
2023/08/25 11:42:54;;;;;;;10.10;9.80;;;23.70;99.90;;;;;;5039544;28;20233;-85
2023/08/25 11:45:22;;;;;;;10.40;10.10;;;23.80;99.90;;;;;;5040213;28;20218;-85
2023/08/25 11:48:00;;;;;;;10.73;10.43;;;24.00;99.90;;;;;;5039888;28;20235;-85
2023/08/25 11:50:39;;;;;;;10.80;10.50;;;24.30;99.90;;;;;;5039853;28;20235;-85
2023/08/25 11:53:10;;;;;;;10.98;10.68;;;24.50;99.90;;;;;;5021567;28;20231;-85
2023/08/25 11:55:38;;;;;;;11.10;10.80;;;24.60;99.90;;;;;;5039918;28;20358;-85
2023/08/25 11:58:11;;;;;;;10.85;10.55;;;24.70;99.90;;;;;;5039622;28;20249;-85
2023/08/25 12:00:39;;;;;;;10.80;10.50;;;24.80;99.90;;;;;;5040730;28;20242;-85
2023/08/25 12:03:06;;;;;;;10.90;10.60;;;24.90;99.90;;;;;;5041725;28;20252;-87
2023/08/25 12:05:36;;;;;;;10.80;10.50;;;24.80;99.90;;;;;;5042516;28;20223;-86
2023/08/25 12:08:05;;;;;;;10.88;10.57;;;24.90;99.90;;;;;;5040746;28;20239;-86
2023/08/25 12:10:39;;;;;;;10.80;10.50;;;24.90;99.90;;;;;;5041055;28;20241;-86
2023/08/25 12:13:06;;;;;;;10.65;10.35;;;24.80;99.90;;;;;;5041010;28;20246;-87
2023/08/25 12:15:47;;;;;;;10.75;10.45;;;24.80;99.90;;;;;;5039264;28;20299;-86
2023/08/25 12:18:14;;;;;;;10.90;10.60;;;24.70;99.90;;;;;;5039202;28;20238;-87
2023/08/25 12:20:58;;;;;;;10.75;10.45;;;24.80;99.90;;;;;;5039853;28;20239;-85
2023/08/25 12:23:37;;;;;;;10.65;10.35;;;24.80;99.90;;;;;;5039840;28;20310;-84
2023/08/25 12:28:53;;;;;;;11.20;10.90;;;25.00;99.90;;;;;;5085371;22;20348;-84
2023/08/25 12:31:32;;;;;;;11.20;10.90;;;25.10;99.90;;;;;;5079282;28;20237;-84
2023/08/25 12:34:00;;;;;;;11.07;10.77;;;25.30;99.90;;;;;;5079844;28;20245;-84
2023/08/25 12:36:30;;;;;;;11.07;10.77;;;25.40;99.90;;;;;;5079293;28;20257;-87
2023/08/25 12:41:40;;;;;;;10.60;10.30;;;25.50;99.90;;;;;;5064776;28;20218;-87
2023/08/25 12:44:08;;;;;;;10.93;10.63;;;25.50;99.90;;;;;;5063125;28;20312;-87
2023/08/25 12:46:37;;;;;;;11.10;10.80;;;25.50;99.90;;;;;;5062592;28;20296;-87
2023/08/25 12:49:06;;;;;;;11.00;10.70;;;25.60;99.90;;;;;;5074330;28;20286;-87
2023/08/25 12:51:44;;;;;;;11.00;10.70;;;25.70;99.90;;;;;;5081081;28;20245;-84
2023/08/25 12:54:13;;;;;;;10.90;10.60;;;25.80;99.90;;;;;;5077666;28;20342;-85
2023/08/25 12:56:46;;;;;;;11.05;10.75;;;25.80;99.90;;;;;;5063923;28;20244;-85
2023/08/25 12:59:13;;;;;;;11.20;10.90;;;25.90;99.90;;;;;;5066303;28;20241;-84
2023/08/25 13:01:42;;;;;;;11.27;10.98;;;25.90;99.90;;;;;;5078839;28;20265;-85
2023/08/25 13:04:21;;;;;;;11.25;10.95;;;25.80;99.90;;;;;;5082005;28;20233;-85
2023/08/25 13:06:49;;;;;;;11.25;10.95;;;25.80;99.90;;;;;;5081563;28;20245;-84
2023/08/25 13:11:59;;;;;;;11.23;10.93;;;25.90;99.90;;;;;;5067974;28;20266;-86
2023/08/25 13:14:27;;;;;;;11.25;10.95;;;25.90;99.90;;;;;;5063747;28;20251;-85
2023/08/25 13:16:56;;;;;;;11.32;11.02;;;25.90;99.90;;;;;;5062972;28;20257;-85
2023/08/25 13:19:38;;;;;;;11.30;10.98;;;25.90;99.90;;;;;;5062708;28;20237;-85
2023/08/25 13:22:14;;;;;;;11.15;10.85;;;25.80;99.90;;;;;;5063061;28;20236;-85
2023/08/25 13:27:35;;;;;;;11.35;10.98;;;25.70;99.90;;;;;;5062815;28;20230;-85
2023/08/25 13:30:03;;;;;;;11.20;10.90;;;25.60;99.90;;;;;;5062962;28;20288;-85
2023/08/25 13:32:30;;;;;;;11.07;10.77;;;25.60;99.90;;;;;;5062685;28;20259;-85
2023/08/25 13:37:38;;;;;;;11.05;10.75;;;25.80;99.90;;;;;;5063629;28;20237;-85
2023/08/25 13:40:08;;;;;;;11.50;11.10;;;26.00;99.90;;;;;;5063277;28;20289;-85
2023/08/25 13:42:39;;;;;;;11.13;10.82;;;26.20;99.90;;;;;;5063548;28;20235;-86
2023/08/25 13:45:08;;;;;;;11.10;10.80;;;26.40;99.90;;;;;;5063985;28;20262;-85
2023/08/25 13:47:35;;;;;;;10.70;10.40;;;26.50;99.90;;;;;;5062827;28;20261;-84
2023/08/25 13:50:14;;;;;;;10.45;10.15;;;26.60;99.90;;;;;;5063343;28;20277;-86
2023/08/25 13:52:43;;;;;;;10.60;10.30;;;26.60;99.90;;;;;;5062329;28;20233;-85
2023/08/25 13:55:22;;;;;;;10.30;10.00;;;26.60;99.90;;;;;;5062936;28;20238;-86
2023/08/25 14:00:47;;;;;;;10.65;10.35;;;26.50;99.90;;;;;;5079111;28;20225;-85
2023/08/25 14:03:18;;;;;;;11.20;10.90;;;26.40;99.90;;;;;;5079007;28;20225;-85
2023/08/25 14:05:45;;;;;;;10.95;10.65;;;26.40;99.90;;;;;;5079049;28;20219;-85
2023/08/25 14:08:15;;;;;;;10.90;10.60;;;26.30;99.90;;;;;;5063323;28;20238;-85